Impacts TAF Board
For situational awareness. Not to be used for flight planning purposes.
IDs:

KDTW - Detroit Metro/Wayne, MI, US

Issued at 1120 UTC 25 Jun 2019
Updated at 1406 UTC 25 Jun 2019
Potential Impact None Slight Moderate High
Time<<26/03Z 26/04Z 26/05Z 26/06Z 26/07Z 26/08Z 26/09Z 26/10Z 26/11Z 26/12Z 26/13Z 26/14Z 26/15Z>>
Type PRVL PRVL PRVL PRVL PRVL PRVL PRVL PRVL PRVL PRVL PRVL PRVL PRVL
VIS >6 >6 >6 >6 >6 >6 >6 >6 >6 >6 >6 >6 >6
CIG -- -- -- 200 200 200 200 200 200 200 200 200 200
Cover SCT SCT SCT BKN BKN BKN BKN BKN BKN BKN BKN BKN BKN
FltCat VFR VFR VFR VFR VFR VFR VFR VFR VFR VFR VFR VFR VFR
WX -- -- -- -- -- -- -- -- -- -- -- -- --
WDir 240 240 240 220 220 220 220 220 220 220 220 220 220
WSpd 8 8 8 8 8 8 8 8 8 8 8 8 8
WGst -- -- -- -- -- -- -- -- -- -- -- -- --
Raw TAF
KDTW 251120Z 2512/2618 23010KT P6SM SKC
  FM251600 25012G20KT P6SM FEW050
  FM260000 24008KT P6SM SCT250
  FM260600 22008KT P6SM BKN200


METAR Board
Radar Display
Forecast Discussion
For situational awareness. Not to be used for flight planning purposes.